Time;durP1;ratioP1;P1;durP2;ratioP2;P2;SDS_P1;SDS_P2;PMS_P1;PMS_P2;Temp;Humidity;BMP_temperature;BMP_pressure;BME280_temperature;BME280_humidity;BME280_pressure;Samples;Min_cycle;Max_cycle;Signal;HPM_P1;HPM_P2
2022/09/13 00:00:49;;;;;;;2.52;2.30;;;;;;;10.86;100.00;98504.58;1745988;82;21391;-70
2022/09/13 00:03:17;;;;;;;2.70;2.42;;;;;;;10.89;100.00;98500.97;1744964;82;20993;-70
2022/09/13 00:05:43;;;;;;;2.67;2.20;;;;;;;10.91;100.00;98499.13;1745149;82;21025;-69
2022/09/13 00:08:09;;;;;;;3.30;2.72;;;;;;;10.92;100.00;98499.50;1743727;82;21045;-70
2022/09/13 00:10:38;;;;;;;2.62;2.42;;;;;;;10.89;100.00;98498.37;1745584;82;21510;-70
2022/09/13 00:13:07;;;;;;;5.50;2.80;;;;;;;10.86;100.00;98499.37;1744316;82;21276;-70
2022/09/13 00:15:35;;;;;;;3.35;2.50;;;;;;;10.86;100.00;98495.48;1745827;82;21029;-69
2022/09/13 00:18:01;;;;;;;2.75;2.55;;;;;;;10.89;100.00;98503.57;1745637;82;21414;-69
2022/09/13 00:20:29;;;;;;;3.00;2.67;;;;;;;10.90;100.00;98502.19;1745263;82;21371;-69
2022/09/13 00:22:55;;;;;;;2.37;2.17;;;;;;;10.90;100.00;98493.54;1745847;82;21481;-69
2022/09/13 00:25:22;;;;;;;2.30;1.95;;;;;;;10.91;100.00;98501.26;1724971;82;21446;-69
2022/09/13 00:27:48;;;;;;;2.98;1.80;;;;;;;10.92;100.00;98500.33;1745838;82;20929;-69
2022/09/13 00:30:14;;;;;;;1.85;1.70;;;;;;;10.92;100.00;98496.43;1700850;82;20993;-69
2022/09/13 00:32:41;;;;;;;2.37;2.17;;;;;;;10.93;100.00;98499.87;1745907;82;20942;-69
2022/09/13 00:35:08;;;;;;;1.70;1.60;;;;;;;10.93;100.00;98494.20;1745374;82;20981;-70
2022/09/13 00:37:35;;;;;;;2.58;1.72;;;;;;;10.95;100.00;98491.05;1745152;82;21159;-69
2022/09/13 00:40:03;;;;;;;5.50;1.40;;;;;;;10.97;100.00;98495.70;1744244;82;20938;-69
2022/09/13 00:42:34;;;;;;;3.40;1.80;;;;;;;10.99;100.00;98491.22;1745816;82;20917;-69
2022/09/13 00:45:11;;;;;;;2.55;1.45;;;;;;;11.01;100.00;98489.38;1745810;82;21388;-69
2022/09/13 00:47:52;;;;;;;2.00;1.40;;;;;;;11.02;100.00;98490.21;1745451;82;20937;-69
2022/09/13 00:50:33;;;;;;;1.40;1.30;;;;;;;11.00;100.00;98492.90;1720407;81;21114;-69
2022/09/13 00:53:25;;;;;;;1.32;1.22;;;;;;;10.99;100.00;98491.22;1712688;83;21014;-69
2022/09/13 00:55:58;;;;;;;2.00;1.22;;;;;;;10.99;100.00;98485.21;1711596;82;20974;-69
2022/09/13 00:58:27;;;;;;;;;;;;;;;10.96;100.00;98484.92;1714359;83;20982;-69
2022/09/13 01:00:55;;;;;;;2.22;1.25;;;;;;;10.96;100.00;98484.92;1712570;83;20527;-69
2022/09/13 01:03:22;;;;;;;2.15;1.35;;;;;;;10.95;100.00;98488.91;1713020;83;21260;-69
2022/09/13 01:05:56;;;;;;;3.25;1.00;;;;;;;10.95;100.00;98481.95;1712556;83;20966;-69
2022/09/13 01:08:22;;;;;;;3.00;1.20;;;;;;;10.94;100.00;98481.57;1712597;83;20990;-69
2022/09/13 01:10:52;;;;;;;1.10;1.00;;;;;;;10.95;100.00;98485.02;1685083;83;21002;-69
2022/09/13 01:13:21;;;;;;;0.93;0.93;;;;;;;10.93;100.00;98485.09;1712808;83;21458;-69
2022/09/13 01:15:49;;;;;;;1.40;1.00;;;;;;;10.92;100.00;98486.02;1712684;83;20883;-69
2022/09/13 01:18:17;;;;;;;1.85;1.10;;;;;;;10.93;100.00;98482.96;1662446;83;21025;-69
2022/09/13 01:21:09;;;;;;;0.80;0.80;;;;;;;10.94;100.00;98480.73;1712678;83;21014;-69
2022/09/13 01:24:17;;;;;;;2.05;1.15;;;;;;;10.95;100.00;98480.65;1712526;83;21018;-69
2022/09/13 01:27:41;;;;;;;1.22;1.12;;;;;;;10.92;100.00;98474.31;1685545;83;21033;-69
2022/09/13 01:30:17;;;;;;;1.00;1.00;;;;;;;10.89;100.00;98474.95;1712310;83;21145;-69
2022/09/13 01:33:02;;;;;;;1.22;1.10;;;;;;;10.87;100.00;98472.44;1712643;83;21074;-69
2022/09/13 01:36:05;;;;;;;2.47;1.50;;;;;;;10.87;100.00;98479.41;1712378;83;21021;-69
2022/09/13 01:39:05;;;;;;;1.32;1.12;;;;;;;10.87;100.00;98477.64;1652445;85;20972;-69
2022/09/13 01:42:05;;;;;;;1.37;1.00;;;;;;;10.85;100.00;98474.29;1712697;83;20974;-69
2022/09/13 01:45:03;;;;;;;1.87;1.30;;;;;;;10.83;100.00;98471.41;1710958;83;21448;-69
2022/09/13 01:47:53;;;;;;;1.60;1.50;;;;;;;10.84;100.00;98469.17;1704372;83;20970;-69
2022/09/13 01:50:39;;;;;;;1.70;1.20;;;;;;;10.83;100.00;98463.13;1726854;81;20953;-69
2022/09/13 01:53:26;;;;;;;1.20;1.10;;;;;;;10.82;100.00;98460.63;1700900;82;20958;-69
2022/09/13 01:56:11;;;;;;;1.80;1.40;;;;;;;10.82;100.00;98464.06;1735563;82;21526;-70
2022/09/13 01:58:50;;;;;;;1.60;1.50;;;;;;;10.83;100.00;98462.30;1731927;82;21784;-70
2022/09/13 02:01:34;;;;;;;1.30;1.20;;;;;;;10.78;100.00;98453.48;1732977;82;21025;-70
2022/09/13 02:04:16;;;;;;;1.72;1.40;;;;;;;10.78;100.00;98448.28;1735439;82;20942;-70
2022/09/13 02:06:52;;;;;;;2.70;1.90;;;;;;;10.78;100.00;98454.79;1734424;82;20961;-70
2022/09/13 02:09:21;;;;;;;1.90;1.80;;;;;;;10.77;100.00;98447.91;1735964;82;20946;-69
2022/09/13 02:11:53;;;;;;;1.45;1.35;;;;;;;10.77;100.00;98441.41;1736265;82;21800;-69
2022/09/13 02:14:24;;;;;;;2.05;1.90;;;;;;;10.77;100.00;98440.11;1735884;82;20942;-69
2022/09/13 02:16:59;;;;;;;1.98;1.77;;;;;;;10.77;100.00;98442.70;1734828;82;20945;-69
2022/09/13 02:19:38;;;;;;;2.50;2.30;;;;;;;10.76;100.00;98443.63;1735918;82;21008;-69
2022/09/13 02:22:06;;;;;;;2.60;2.40;;;;;;;10.76;100.00;98438.44;1735835;82;20986;-69
2022/09/13 02:24:39;;;;;;;2.17;2.08;;;;;;;10.77;100.00;98433.61;1735266;82;21557;-69
2022/09/13 02:27:10;;;;;;;2.27;1.80;;;;;;;10.82;100.00;98434.61;1734856;82;28410;-69
2022/09/13 02:29:39;;;;;;;5.83;2.53;;;;;;;10.83;100.00;98434.98;1736015;82;20934;-70
2022/09/13 02:32:27;;;;;;;4.50;2.58;;;;;;;10.82;100.00;98428.95;1735799;82;21025;-69
2022/09/13 02:34:59;;;;;;;2.60;2.40;;;;;;;10.83;100.00;98424.58;1735881;82;21559;-69
2022/09/13 02:37:27;;;;;;;2.50;2.30;;;;;;;10.83;100.00;98430.62;1714370;82;21090;-69
2022/09/13 02:39:58;;;;;;;2.02;1.80;;;;;;;10.84;100.00;98433.59;1736162;82;20985;-69
2022/09/13 02:42:43;;;;;;;2.22;2.12;;;;;;;10.86;100.00;98430.45;1715744;82;21592;-69
2022/09/13 02:45:11;;;;;;;2.60;2.40;;;;;;;10.89;100.00;98434.17;1734483;82;20985;-70
2022/09/13 02:47:59;;;;;;;2.52;2.33;;;;;;;10.91;100.00;98431.02;1734465;82;20918;-70
2022/09/13 02:50:41;;;;;;;1.90;1.80;;;;;;;10.92;100.00;98428.80;1740361;82;21209;-70
2022/09/13 02:53:40;;;;;;;3.33;1.95;;;;;;;10.95;100.00;98427.78;1745784;82;21429;-70
2022/09/13 02:56:30;;;;;;;2.20;2.10;;;;;;;10.97;100.00;98429.36;1744396;82;21094;-69
2022/09/13 02:59:19;;;;;;;3.72;2.00;;;;;;;10.96;100.00;98426.84;1745859;82;21061;-69
2022/09/13 03:02:03;;;;;;;1.62;1.52;;;;;;;10.94;100.00;98433.91;1746067;82;21516;-71
2022/09/13 03:04:29;;;;;;;1.67;1.52;;;;;;;10.95;100.00;98422.11;1742881;82;21096;-71
2022/09/13 03:06:56;;;;;;;3.17;1.60;;;;;;;10.96;100.00;98419.88;1745753;82;20953;-71
2022/09/13 03:09:22;;;;;;;1.70;1.60;;;;;;;10.97;100.00;98416.82;1746065;82;21449;-68
2022/09/13 03:12:13;;;;;;;1.67;1.57;;;;;;;10.95;100.00;98419.51;1746259;82;20989;-68
2022/09/13 03:15:19;;;;;;;1.57;1.30;;;;;;;10.96;100.00;98416.45;1741102;82;21378;-70
2022/09/13 03:17:54;;;;;;;1.50;1.40;;;;;;;10.99;100.00;98417.56;1744782;82;21068;-70
2022/09/13 03:20:45;;;;;;;1.50;1.40;;;;;;;11.01;100.00;98419.12;1745273;82;21024;-70
2022/09/13 03:23:29;;;;;;;1.10;1.10;;;;;;;11.03;100.00;98422.94;1745720;82;20937;-69
2022/09/13 03:26:22;;;;;;;1.70;1.00;;;;;;;11.03;100.00;98415.97;1744097;81;20977;-69
2022/09/13 03:29:26;;;;;;;1.32;1.27;;;;;;;11.04;100.00;98415.50;1746002;82;20965;-69
2022/09/13 03:32:16;;;;;;;1.50;1.40;;;;;;;11.02;100.00;98412.15;1746018;82;21159;-69
2022/09/13 03:34:54;;;;;;;1.00;1.00;;;;;;;11.00;100.00;98411.41;1745218;82;21017;-69
2022/09/13 03:37:32;;;;;;;2.35;1.20;;;;;;;11.00;100.00;98401.83;1745851;82;20965;-69
2022/09/13 03:40:16;;;;;;;1.62;1.52;;;;;;;11.02;100.00;98405.65;1745860;82;20974;-69
2022/09/13 03:42:49;;;;;;;;;;;;;;;11.03;100.00;98406.86;1748304;82;21544;-69
2022/09/13 03:45:17;;;;;;;1.95;1.60;;;;;;;11.05;100.00;98411.51;1707438;84;20744;-69
2022/09/13 03:47:45;;;;;;;1.98;1.10;;;;;;;11.04;100.00;98414.20;1745613;81;21035;-68
2022/09/13 03:50:17;;;;;;;1.20;1.10;;;;;;;11.05;100.00;98416.72;1701038;82;21426;-68
2022/09/13 03:52:44;;;;;;;1.50;1.40;;;;;;;11.06;100.00;98414.95;1745148;82;21013;-70
2022/09/13 03:55:11;;;;;;;1.40;1.30;;;;;;;11.05;100.00;98419.78;1745852;82;21052;-70
2022/09/13 03:57:38;;;;;;;1.35;1.25;;;;;;;11.05;100.00;98413.27;1724483;82;21117;-71
2022/09/13 04:00:06;;;;;;;1.22;1.12;;;;;;;11.03;100.00;98421.17;1745848;82;20910;-71
2022/09/13 04:02:35;;;;;;;1.30;1.20;;;;;;;11.03;100.00;98416.42;1745247;82;20961;-70
2022/09/13 04:05:05;;;;;;;0.93;0.93;;;;;;;11.02;100.00;98418.19;1744259;82;21480;-70
2022/09/13 04:07:32;;;;;;;1.30;1.20;;;;;;;11.03;100.00;98409.92;1745835;82;20929;-70
2022/09/13 04:10:00;;;;;;;1.30;1.20;;;;;;;11.04;100.00;98408.53;1744563;82;21753;-70
2022/09/13 04:12:29;;;;;;;1.07;1.07;;;;;;;11.07;100.00;98413.19;1745692;82;20969;-71
2022/09/13 04:14:55;;;;;;;0.98;0.95;;;;;;;11.05;100.00;98410.20;1745795;82;21036;-70
2022/09/13 04:17:21;;;;;;;1.40;1.20;;;;;;;11.07;100.00;98404.91;1744377;82;20977;-71
2022/09/13 04:19:49;;;;;;;1.30;1.20;;;;;;;11.09;100.00;98413.94;1746150;82;20949;-71
2022/09/13 04:22:16;;;;;;;1.10;1.00;;;;;;;11.10;100.00;98409.10;1745404;82;21134;-71
2022/09/13 04:24:43;;;;;;;0.78;0.78;;;;;;;11.11;100.00;98422.48;1745751;82;20989;-71
2022/09/13 04:27:09;;;;;;;1.80;1.22;;;;;;;11.11;100.00;98417.28;1744857;82;20941;-70
2022/09/13 04:29:38;;;;;;;1.10;1.00;;;;;;;11.09;100.00;98407.42;1745544;82;21431;-70
2022/09/13 04:32:05;;;;;;;1.10;1.00;;;;;;;11.06;100.00;98416.25;1745909;82;21029;-71
2022/09/13 04:34:34;;;;;;;0.95;0.95;;;;;;;11.08;100.00;98410.95;1745851;82;21120;-71
2022/09/13 04:37:02;;;;;;;1.62;0.98;;;;;;;11.09;100.00;98410.03;1745823;82;21064;-71
2022/09/13 04:39:28;;;;;;;1.35;1.15;;;;;;;11.12;100.00;98409.84;1745433;82;20945;-70
2022/09/13 04:41:55;;;;;;;1.32;1.10;;;;;;;11.15;100.00;98410.97;1745387;82;20969;-70
2022/09/13 04:44:23;;;;;;;1.60;1.17;;;;;;;11.16;100.00;98411.34;1744837;82;20969;-70
2022/09/13 04:46:50;;;;;;;1.37;1.00;;;;;;;11.17;100.00;98403.91;1744403;82;21127;-69
2022/09/13 04:49:18;;;;;;;2.40;1.20;;;;;;;11.20;100.00;98406.30;1745743;82;20977;-69
2022/09/13 04:51:47;;;;;;;1.25;1.10;;;;;;;11.22;100.00;98412.25;1745654;81;21445;-69
2022/09/13 04:54:13;;;;;;;1.10;1.00;;;;;;;11.24;100.00;98416.44;1745858;82;21111;-69
2022/09/13 04:56:40;;;;;;;2.27;1.10;;;;;;;11.28;100.00;98414.48;1745871;82;20933;-69
2022/09/13 04:59:06;;;;;;;1.15;0.88;;;;;;;11.30;100.00;98413.94;1745484;82;21292;-68
2022/09/13 05:01:33;;;;;;;1.35;1.20;;;;;;;11.31;100.00;98413.00;1745750;82;21483;-69
2022/09/13 05:04:00;;;;;;;1.52;1.27;;;;;;;11.29;100.00;98418.30;1745883;82;21421;-69
2022/09/13 05:06:28;;;;;;;1.52;1.40;;;;;;;11.30;100.00;98416.08;1745605;82;20980;-69
2022/09/13 05:08:55;;;;;;;1.80;1.37;;;;;;;11.28;100.00;98417.09;1746157;82;21009;-69
2022/09/13 05:11:24;;;;;;;1.42;1.20;;;;;;;11.27;100.00;98414.12;1739337;82;21173;-70
2022/09/13 05:13:53;;;;;;;1.35;1.07;;;;;;;11.25;100.00;98409.47;1720281;81;21036;-70
2022/09/13 05:16:22;;;;;;;1.25;1.10;;;;;;;11.24;100.00;98416.90;1749884;81;21074;-70
2022/09/13 05:18:50;;;;;;;1.40;1.20;;;;;;;11.22;100.00;98413.09;1742739;81;20959;-69
2022/09/13 05:21:17;;;;;;;1.87;1.45;;;;;;;11.20;100.00;98413.64;1732827;82;21557;-69
2022/09/13 05:23:44;;;;;;;1.17;1.02;;;;;;;11.20;100.00;98413.64;1732755;80;21229;-70
2022/09/13 05:26:10;;;;;;;1.25;0.98;;;;;;;11.19;100.00;98415.87;1714979;82;20981;-70
2022/09/13 05:28:37;;;;;;;2.30;1.20;;;;;;;11.17;100.00;98419.06;1723763;82;21036;-70
2022/09/13 05:31:07;;;;;;;2.15;1.25;;;;;;;11.17;100.00;98415.63;1733086;82;21534;-71
2022/09/13 05:33:36;;;;;;;2.05;1.30;;;;;;;11.17;100.00;98406.51;1737322;82;20991;-70
2022/09/13 05:36:04;;;;;;;1.25;1.05;;;;;;;11.20;100.00;98407.59;1734760;82;21269;-71
2022/09/13 05:38:31;;;;;;;2.27;1.52;;;;;;;11.21;100.00;98409.27;1732669;82;21534;-71
2022/09/13 05:41:02;;;;;;;1.25;1.02;;;;;;;11.19;100.00;98415.87;1733962;82;21017;-71
2022/09/13 05:43:32;;;;;;;2.35;1.35;;;;;;;11.19;100.00;98418.97;1732869;82;21085;-71
2022/09/13 05:46:09;;;;;;;1.55;1.10;;;;;;;11.17;100.00;98416.45;1728639;82;21116;-71
2022/09/13 05:48:37;;;;;;;1.40;1.07;;;;;;;11.19;100.00;98421.08;1728028;82;21566;-70
2022/09/13 05:51:17;;;;;;;1.50;1.40;;;;;;;11.20;100.00;98416.71;1728019;82;21093;-70
2022/09/13 05:53:47;;;;;;;1.20;1.10;;;;;;;11.22;100.00;98420.89;1729014;82;21053;-70
2022/09/13 05:56:21;;;;;;;1.55;0.98;;;;;;;11.23;100.00;98415.23;1727571;82;21033;-70
2022/09/13 05:58:48;;;;;;;3.42;1.47;;;;;;;11.27;100.00;98429.73;1715897;82;21049;-70
2022/09/13 06:01:18;;;;;;;1.22;1.10;;;;;;;11.29;100.00;98427.41;1724488;82;21190;-69
2022/09/13 06:03:50;;;;;;;1.65;1.37;;;;;;;11.31;100.00;98430.77;1734142;82;37365;-69
2022/09/13 06:06:17;;;;;;;2.10;1.30;;;;;;;11.34;100.00;98437.55;1716341;82;21026;-70
2022/09/13 06:08:44;;;;;;;1.90;1.20;;;;;;;11.36;100.00;98439.14;1731396;82;21066;-70
2022/09/13 06:11:14;;;;;;;1.47;0.90;;;;;;;11.38;100.00;98435.98;1726042;82;21044;-70
2022/09/13 06:13:42;;;;;;;1.37;1.00;;;;;;;11.44;100.00;98441.72;1728089;82;21044;-70
2022/09/13 06:16:11;;;;;;;2.67;1.80;;;;;;;11.46;100.00;98438.09;1732757;82;21002;-70
2022/09/13 06:18:38;;;;;;;1.60;1.50;;;;;;;11.48;100.00;98446.65;1728527;82;21062;-71
2022/09/13 06:21:11;;;;;;;1.10;1.00;;;;;;;11.54;100.00;98442.84;1733305;82;21052;-69
2022/09/13 06:23:39;;;;;;;1.02;1.02;;;;;;;11.58;100.00;98454.75;1722151;82;21098;-68
2022/09/13 06:26:11;;;;;;;1.22;1.05;;;;;;;11.59;100.00;98445.52;1671002;84;21161;-70
2022/09/13 06:28:38;;;;;;;6.47;1.52;;;;;;;11.61;100.00;98452.77;1723430;82;20983;-69
2022/09/13 06:31:07;;;;;;;1.50;1.40;;;;;;;11.62;100.00;98450.53;1721464;82;21449;-70
2022/09/13 06:33:37;;;;;;;1.52;1.20;;;;;;;11.64;100.00;98453.89;1723742;82;21367;-70
2022/09/13 06:36:06;;;;;;;1.00;1.00;;;;;;;11.67;100.00;98452.86;1725135;82;21691;-70
2022/09/13 06:38:32;;;;;;;1.90;1.10;;;;;;;11.71;100.00;98455.66;1727722;82;22253;-70
2022/09/13 06:41:08;;;;;;;2.10;1.32;;;;;;;11.76;100.00;98454.08;1735379;82;21058;-70
2022/09/13 06:43:35;;;;;;;1.20;1.10;;;;;;;11.79;100.00;98454.72;1731416;82;21030;-72
2022/09/13 06:46:08;;;;;;;1.20;1.10;;;;;;;11.85;100.00;98466.08;1720986;82;20954;-70
2022/09/13 06:48:37;;;;;;;1.37;1.27;;;;;;;11.89;100.00;98461.05;1741214;82;21492;-69
2022/09/13 06:51:09;;;;;;;2.05;1.40;;;;;;;11.95;100.00;98455.46;1741362;82;21540;-73
2022/09/13 06:53:37;;;;;;;1.30;1.20;;;;;;;12.01;100.00;98460.73;1709812;82;21068;-71
2022/09/13 06:56:19;;;;;;;1.55;1.45;;;;;;;12.04;100.00;98465.75;1721393;82;21045;-69
2022/09/13 06:58:49;;;;;;;2.20;1.12;;;;;;;12.04;100.00;98468.36;1724728;82;20989;-71
2022/09/13 07:01:21;;;;;;;1.70;1.60;;;;;;;12.04;100.00;98463.98;1727711;82;21044;-73
2022/09/13 07:03:59;;;;;;;1.87;1.70;;;;;;;12.07;100.00;98466.87;1729686;82;21188;-72
2022/09/13 07:06:28;;;;;;;2.00;1.67;;;;;;;12.08;100.00;98466.77;1724815;82;21907;-68
2022/09/13 07:08:58;;;;;;;1.75;1.52;;;;;;;12.06;100.00;98471.24;1738682;82;21098;-74
2022/09/13 07:11:28;;;;;;;2.22;1.80;;;;;;;12.07;100.00;98469.47;1741371;82;21076;-72
2022/09/13 07:13:56;;;;;;;2.08;1.85;;;;;;;12.07;100.00;98472.08;1730965;82;21536;-70
2022/09/13 07:16:31;;;;;;;2.47;1.60;;;;;;;12.09;100.00;98481.95;1736388;82;21859;-71
2022/09/13 07:19:07;;;;;;;2.08;1.87;;;;;;;12.12;100.00;98483.52;1730139;82;21037;-70
2022/09/13 07:21:35;;;;;;;1.55;1.45;;;;;;;12.15;100.00;98474.21;1672617;84;21034;-70
2022/09/13 07:24:04;;;;;;;1.60;1.42;;;;;;;12.17;100.00;98481.00;1726644;82;21686;-70
2022/09/13 07:26:30;;;;;;;2.30;2.10;;;;;;;12.20;100.00;98483.39;1734527;82;21012;-71
2022/09/13 07:28:59;;;;;;;2.08;1.80;;;;;;;12.23;100.00;98485.81;1733296;82;21115;-70
2022/09/13 07:31:29;;;;;;;1.65;1.55;;;;;;;12.25;100.00;98487.85;1734765;82;21000;-70
2022/09/13 07:33:58;;;;;;;1.55;1.45;;;;;;;12.25;100.00;98485.24;1723024;82;21097;-71
2022/09/13 07:36:25;;;;;;;2.70;1.70;;;;;;;12.26;100.00;98489.52;1723083;82;21143;-71
2022/09/13 07:38:52;;;;;;;2.10;1.90;;;;;;;12.24;100.00;98500.52;1724612;82;21113;-69
2022/09/13 07:41:21;;;;;;;2.00;1.75;;;;;;;12.22;100.00;98496.33;1714777;82;21556;-69
2022/09/13 07:43:48;;;;;;;2.60;1.75;;;;;;;12.20;100.00;98492.98;1737416;82;21092;-69
2022/09/13 07:46:17;;;;;;;1.80;1.70;;;;;;;12.16;100.00;98491.06;1729976;82;21020;-71
2022/09/13 07:48:45;;;;;;;2.87;2.20;;;;;;;12.15;100.00;98493.77;1723874;82;21154;-68
2022/09/13 07:51:14;;;;;;;1.90;1.75;;;;;;;12.13;100.00;98497.77;1720588;82;21066;-70
2022/09/13 07:53:42;;;;;;;2.15;1.95;;;;;;;12.12;100.00;98497.86;1743421;81;21167;-69
2022/09/13 07:56:19;;;;;;;1.67;1.57;;;;;;;12.12;100.00;98492.18;1723571;80;21039;-72
2022/09/13 07:58:47;;;;;;;2.42;1.80;;;;;;;12.12;100.00;98499.16;1712218;82;21445;-70
2022/09/13 08:01:25;;;;;;;2.22;2.02;;;;;;;12.15;100.00;98500.28;1728823;82;21156;-69
2022/09/13 08:03:57;;;;;;;2.02;1.60;;;;;;;12.16;100.00;98499.34;1723987;82;21054;-71
2022/09/13 08:06:26;;;;;;;2.10;1.75;;;;;;;12.17;100.00;98497.95;1678880;83;21172;-72
2022/09/13 08:08:52;;;;;;;1.90;1.80;;;;;;;12.19;100.00;98500.46;1700874;81;21054;-69
2022/09/13 08:11:23;;;;;;;2.70;2.40;;;;;;;12.22;100.00;98502.38;1713938;82;21016;-69
2022/09/13 08:13:50;;;;;;;2.40;2.20;;;;;;;12.23;100.00;98502.75;1732086;82;21053;-70
2022/09/13 08:16:19;;;;;;;3.08;2.80;;;;;;;12.24;100.00;98499.21;1656229;86;21077;-70
2022/09/13 08:18:47;;;;;;;2.90;2.60;;;;;;;12.23;100.00;98503.22;1687460;83;21146;-70
2022/09/13 08:21:13;;;;;;;3.17;2.62;;;;;;;12.18;100.00;98497.02;1712285;83;21088;-70
2022/09/13 08:23:40;;;;;;;3.12;2.83;;;;;;;12.16;100.00;98511.91;1716233;82;21105;-71
2022/09/13 08:26:07;;;;;;;4.58;3.37;;;;;;;12.14;100.00;98509.03;1729884;82;21081;-70
2022/09/13 08:28:35;;;;;;;3.80;3.50;;;;;;;12.10;100.00;98503.17;1712329;83;21085;-71
2022/09/13 08:31:14;;;;;;;3.12;2.80;;;;;;;12.11;100.00;98517.88;1687660;83;21479;-71
2022/09/13 08:33:46;;;;;;;3.47;3.17;;;;;;;12.10;100.00;98520.11;1719380;82;21081;-71
2022/09/13 08:36:13;;;;;;;5.25;4.42;;;;;;;12.11;100.00;98514.43;1720614;83;22096;-70
2022/09/13 08:38:41;;;;;;;4.62;3.72;;;;;;;12.10;100.00;98510.15;1715880;83;21046;-71
2022/09/13 08:41:46;;;;;;;4.60;4.20;;;;;;;12.10;100.00;98515.36;1703748;83;21092;-72
2022/09/13 08:44:32;;;;;;;4.50;4.10;;;;;;;12.11;100.00;98511.83;1702503;82;21672;-71
2022/09/13 08:47:10;;;;;;;5.42;4.80;;;;;;;12.15;100.00;98510.70;1710555;82;21015;-71
2022/09/13 08:49:45;;;;;;;5.90;5.40;;;;;;;12.18;100.00;98507.45;1715003;83;21159;-72
2022/09/13 08:52:18;;;;;;;7.17;5.37;;;;;;;12.20;100.00;98517.28;1702298;83;21132;-72
2022/09/13 08:54:45;;;;;;;6.17;5.58;;;;;;;12.23;100.00;98511.03;1703850;83;21101;-72
2022/09/13 08:57:23;;;;;;;9.23;6.45;;;;;;;12.25;100.00;98519.60;1708937;83;21812;-72
2022/09/13 09:00:13;;;;;;;7.40;6.65;;;;;;;12.25;100.00;98513.09;1686367;84;21081;-72
2022/09/13 09:02:51;;;;;;;8.60;6.80;;;;;;;12.29;100.00;98513.27;1682158;84;20981;-73
2022/09/13 09:05:23;;;;;;;7.62;6.55;;;;;;;12.36;100.00;98511.95;1658601;84;21049;-73
2022/09/13 09:08:04;;;;;;;9.03;6.50;;;;;;;12.43;100.00;98513.22;1690149;84;21108;-72
2022/09/13 09:10:36;;;;;;;6.83;6.22;;;;;;;12.50;100.00;98513.20;1659371;86;21163;-72
2022/09/13 09:13:10;;;;;;;5.25;4.60;;;;;;;12.56;100.00;98511.51;1690938;84;21044;-73
2022/09/13 09:15:46;;;;;;;5.58;4.92;;;;;;;12.60;100.00;98507.74;1656428;86;21082;-71
2022/09/13 09:18:23;;;;;;;9.38;5.58;;;;;;;12.64;100.00;98509.22;1691550;84;21085;-71
2022/09/13 09:20:52;;;;;;;8.88;5.80;;;;;;;12.68;100.00;98508.09;1670336;84;21062;-72
2022/09/13 09:23:29;;;;;;;6.45;5.85;;;;;;;12.73;100.00;98506.03;1681466;84;21138;-71
2022/09/13 09:26:19;;;;;;;6.78;5.53;;;;;;;12.76;100.00;98511.52;1743961;81;22065;-72
2022/09/13 09:29:06;;;;;;;8.73;6.62;;;;;;;12.76;100.00;98520.65;1734561;81;21025;-73
2022/09/13 09:31:42;;;;;;;7.30;6.67;;;;;;;12.74;100.00;98517.30;1743269;82;21299;-72
2022/09/13 09:34:24;;;;;;;10.15;8.15;;;;;;;12.69;100.00;98521.98;1743875;82;21027;-72
2022/09/13 09:37:10;;;;;;;9.05;7.65;;;;;;;12.69;100.00;98524.12;1744365;82;21639;-72
2022/09/13 09:39:38;;;;;;;8.08;6.47;;;;;;;12.76;100.00;98522.80;1733013;82;20965;-72
2022/09/13 09:42:18;;;;;;;7.45;6.75;;;;;;;12.88;100.00;98528.13;1743500;82;21169;-72
2022/09/13 09:44:48;;;;;;;8.15;6.80;;;;;;;12.95;100.00;98522.89;1743497;82;21028;-72
2022/09/13 09:47:19;;;;;;;7.40;6.28;;;;;;;13.01;100.00;98515.47;1725900;82;21031;-71
2022/09/13 09:50:16;;;;;;;7.53;6.83;;;;;;;13.07;100.00;98523.37;1744315;82;21735;-72
2022/09/13 09:53:09;;;;;;;8.68;7.75;;;;;;;13.11;100.00;98515.23;1743860;82;21012;-72
2022/09/13 09:56:02;;;;;;;12.33;7.05;;;;;;;13.16;100.00;98513.66;1744062;82;21076;-76
2022/09/13 09:58:40;;;;;;;;;;;;;;;13.22;100.00;98517.14;1740231;82;21062;-71
2022/09/13 10:01:36;;;;;;;12.68;7.67;;;;;;;13.27;100.00;98516.84;1733870;82;20209;-71
2022/09/13 10:04:11;;;;;;;9.85;7.08;;;;;;;13.30;100.00;98516.64;1733983;82;21160;-72
2022/09/13 10:06:39;;;;;;;10.38;6.97;;;;;;;13.33;100.00;98521.66;1736940;81;21083;-73
2022/09/13 10:09:19;;;;;;;7.78;6.42;;;;;;;13.29;100.00;98518.88;1741039;82;21055;-72
2022/09/13 10:11:50;;;;;;;9.48;8.00;;;;;;;13.27;100.00;98525.52;1741283;82;21000;-72
2022/09/13 10:14:44;;;;;;;11.40;8.20;;;;;;;13.27;100.00;98524.67;1740699;82;21154;-71
2022/09/13 10:17:25;;;;;;;8.80;6.83;;;;;;;13.32;100.00;98527.35;1741175;82;21197;-72
2022/09/13 10:20:02;;;;;;;7.20;6.17;;;;;;;13.43;100.00;98535.28;1741503;82;21015;-72
2022/09/13 10:22:31;;;;;;;8.50;6.97;;;;;;;13.49;100.00;98530.13;1737830;82;21035;-71
2022/09/13 10:25:24;;;;;;;7.67;6.42;;;;;;;13.52;100.00;98539.06;1741519;82;21087;-72
2022/09/13 10:27:57;;;;;;;7.78;7.12;;;;;;;13.55;100.00;98536.24;1738221;82;21070;-72
2022/09/13 10:30:47;;;;;;;6.60;6.00;;;;;;;13.60;100.00;98546.36;1719169;83;21139;-72
2022/09/13 10:33:34;;;;;;;12.80;8.05;;;;;;;13.65;100.00;98544.27;1732050;82;21039;-71
2022/09/13 10:36:04;;;;;;;8.75;7.53;;;;;;;13.75;100.00;98543.55;1736473;82;21010;-72
2022/09/13 10:38:40;;;;;;;10.60;7.17;;;;;;;13.99;100.00;98538.84;1731592;82;21045;-73
2022/09/13 10:41:22;;;;;;;9.53;7.65;;;;;;;13.99;100.00;98538.84;1743399;82;21444;-72
2022/09/13 10:43:59;;;;;;;11.33;8.15;;;;;;;14.05;100.00;98547.57;1743765;82;21539;-72
2022/09/13 10:46:29;;;;;;;11.70;8.00;;;;;;;14.09;100.00;98538.10;1743315;82;21130;-72
2022/09/13 10:48:58;;;;;;;8.13;7.33;;;;;;;14.11;100.00;98541.45;1743462;82;21024;-72
2022/09/13 10:51:30;;;;;;;6.83;6.12;;;;;;;14.08;100.00;98547.36;1743708;82;21165;-72
2022/09/13 10:54:17;;;;;;;12.18;6.97;;;;;;;13.95;100.00;98545.25;1716366;82;21577;-72
2022/09/13 10:56:49;;;;;;;8.28;7.37;;;;;;;13.79;100.00;98542.84;1709766;83;21250;-72
2022/09/13 10:59:26;;;;;;;9.35;6.50;;;;;;;13.70;100.00;98544.33;1710386;83;21045;-72
2022/09/13 11:02:21;;;;;;;7.90;6.15;;;;;;;13.64;100.00;98539.98;1710496;83;21253;-72
2022/09/13 11:05:19;;;;;;;6.50;5.83;;;;;;;13.62;100.00;98541.86;1697846;83;21041;-72
2022/09/13 11:08:25;;;;;;;7.62;6.90;;;;;;;13.62;100.00;98538.78;1708658;83;21041;-72
2022/09/13 11:11:25;;;;;;;6.50;5.90;;;;;;;13.64;100.00;98541.29;1708805;84;21301;-71
2022/09/13 11:14:26;;;;;;;6.67;5.72;;;;;;;13.62;100.00;98543.17;1709087;83;21045;-71
2022/09/13 11:17:04;;;;;;;6.25;5.65;;;;;;;13.57;100.00;98546.59;1709149;83;21062;-72
2022/09/13 11:20:07;;;;;;;8.20;5.42;;;;;;;13.47;100.00;98538.53;1708863;83;21170;-72
2022/09/13 11:22:54;;;;;;;5.25;4.58;;;;;;;13.39;100.00;98540.34;1635170;86;21327;-71
2022/09/13 11:25:45;;;;;;;7.35;5.10;;;;;;;13.36;100.00;98539.27;1665156;83;21299;-71
2022/09/13 11:28:32;;;;;;;6.80;5.65;;;;;;;13.42;100.00;98544.53;1707399;83;21809;-72
2022/09/13 11:31:51;;;;;;;6.45;5.53;;;;;;;13.42;100.00;98544.53;1696086;83;21024;-72
2022/09/13 11:35:01;;;;;;;5.92;5.42;;;;;;;13.50;100.00;98544.86;1702281;83;21554;-72
2022/09/13 11:37:45;;;;;;;5.58;5.08;;;;;;;13.63;100.00;98544.84;1701823;83;21106;-72
2022/09/13 11:40:50;;;;;;;6.95;5.85;;;;;;;13.72;100.00;98546.38;1678967;84;21237;-72
2022/09/13 11:43:42;;;;;;;6.22;5.65;;;;;;;13.79;100.00;98548.91;1700526;83;22246;-73
2022/09/13 11:46:39;;;;;;;5.90;5.30;;;;;;;13.85;100.00;98551.58;1699002;83;21078;-71
2022/09/13 11:49:29;;;;;;;8.10;6.35;;;;;;;13.90;100.00;98557.80;1702055;83;21639;-71
2022/09/13 11:52:10;;;;;;;8.03;7.37;;;;;;;13.90;100.00;98560.41;1702878;83;21058;-71
2022/09/13 11:55:07;;;;;;;11.15;7.25;;;;;;;13.86;100.00;98563.70;1692583;82;21244;-71
2022/09/13 11:57:38;;;;;;;8.90;6.70;;;;;;;13.79;100.00;98561.97;1677462;84;21059;-72
2022/09/13 12:00:22;;;;;;;7.97;7.03;;;;;;;13.75;100.00;98559.70;1689323;83;21083;-72
2022/09/13 12:03:03;;;;;;;8.93;6.62;;;;;;;13.65;100.00;98563.40;1682819;83;20976;-71
2022/09/13 12:05:33;;;;;;;8.13;7.28;;;;;;;13.48;100.00;98571.55;1692205;84;21055;-72